sensor_id;sensor_type;location;lat;lon;timestamp;pressure;altitude;pressure_sealevel;temperature;humidity
10946;BME280;5525;42.648;23.368;2022-12-05T00:00:12;95637.22;;;5.42;100.00
10946;BME280;5525;42.648;23.368;2022-12-05T00:02:39;95609.88;;;5.20;100.00
10946;BME280;5525;42.648;23.368;2022-12-05T00:05:09;95567.34;;;4.93;100.00
10946;BME280;5525;42.648;23.368;2022-12-05T00:07:37;95615.78;;;5.32;100.00
10946;BME280;5525;42.648;23.368;2022-12-05T00:10:05;95629.97;;;5.33;100.00
10946;BME280;5525;42.648;23.368;2022-12-05T00:12:32;95638.03;;;5.22;100.00
10946;BME280;5525;42.648;23.368;2022-12-05T00:14:59;95633.19;;;5.24;100.00
10946;BME280;5525;42.648;23.368;2022-12-05T00:17:26;95586.88;;;4.99;100.00
10946;BME280;5525;42.648;23.368;2022-12-05T00:19:53;95618.22;;;5.13;100.00
10946;BME280;5525;42.648;23.368;2022-12-05T00:22:21;95611.22;;;5.02;100.00
10946;BME280;5525;42.648;23.368;2022-12-05T00:24:48;95635.84;;;5.04;100.00
10946;BME280;5525;42.648;23.368;2022-12-05T00:27:16;95615.22;;;5.00;100.00
10946;BME280;5525;42.648;23.368;2022-12-05T00:29:43;95646.03;;;5.17;100.00
10946;BME280;5525;42.648;23.368;2022-12-05T00:32:10;95637.19;;;5.17;100.00
10946;BME280;5525;42.648;23.368;2022-12-05T00:34:37;95643.34;;;5.12;100.00
10946;BME280;5525;42.648;23.368;2022-12-05T00:37:04;95648.16;;;5.15;100.00
10946;BME280;5525;42.648;23.368;2022-12-05T00:39:33;95642.28;;;5.18;100.00
10946;BME280;5525;42.648;23.368;2022-12-05T00:42:00;95643.38;;;5.28;100.00
10946;BME280;5525;42.648;23.368;2022-12-05T00:44:27;95634.50;;;5.12;100.00
10946;BME280;5525;42.648;23.368;2022-12-05T00:46:54;95650.34;;;5.13;100.00
10946;BME280;5525;42.648;23.368;2022-12-05T00:49:21;95654.88;;;5.13;100.00
10946;BME280;5525;42.648;23.368;2022-12-05T00:51:48;95644.97;;;5.13;100.00
10946;BME280;5525;42.648;23.368;2022-12-05T00:54:15;95651.38;;;5.28;100.00
10946;BME280;5525;42.648;23.368;2022-12-05T00:56:44;95647.38;;;5.15;100.00
10946;BME280;5525;42.648;23.368;2022-12-05T00:59:14;95597.81;;;4.87;100.00
10946;BME280;5525;42.648;23.368;2022-12-05T01:01:43;95555.25;;;4.76;100.00
10946;BME280;5525;42.648;23.368;2022-12-05T01:04:12;95631.06;;;5.27;100.00
10946;BME280;5525;42.648;23.368;2022-12-05T01:06:40;95585.78;;;5.05;100.00
10946;BME280;5525;42.648;23.368;2022-12-05T01:09:09;95595.41;;;5.06;100.00
10946;BME280;5525;42.648;23.368;2022-12-05T01:11:36;95628.63;;;5.10;100.00
10946;BME280;5525;42.648;23.368;2022-12-05T01:14:05;95633.47;;;5.18;100.00
10946;BME280;5525;42.648;23.368;2022-12-05T01:16:33;95577.50;;;4.96;100.00
10946;BME280;5525;42.648;23.368;2022-12-05T01:19:06;95622.75;;;5.23;100.00
10946;BME280;5525;42.648;23.368;2022-12-05T01:21:33;95625.97;;;5.25;100.00
10946;BME280;5525;42.648;23.368;2022-12-05T01:24:01;95637.47;;;5.20;100.00
10946;BME280;5525;42.648;23.368;2022-12-05T01:26:28;95633.19;;;5.30;100.00
10946;BME280;5525;42.648;23.368;2022-12-05T01:28:55;95632.66;;;5.38;100.00
10946;BME280;5525;42.648;23.368;2022-12-05T01:31:25;95621.94;;;5.17;100.00
10946;BME280;5525;42.648;23.368;2022-12-05T01:33:54;95617.66;;;5.21;100.00
10946;BME280;5525;42.648;23.368;2022-12-05T01:36:22;95609.88;;;5.20;100.00
10946;BME280;5525;42.648;23.368;2022-12-05T01:38:50;95612.59;;;5.15;100.00
10946;BME280;5525;42.648;23.368;2022-12-05T01:41:22;95560.09;;;4.84;100.00
10946;BME280;5525;42.648;23.368;2022-12-05T01:43:56;95567.59;;;4.97;100.00
10946;BME280;5525;42.648;23.368;2022-12-05T01:46:26;95600.25;;;5.14;100.00
10946;BME280;5525;42.648;23.368;2022-12-05T01:48:57;95597.31;;;5.15;100.00
10946;BME280;5525;42.648;23.368;2022-12-05T01:51:26;95570.00;;;4.93;100.00
10946;BME280;5525;42.648;23.368;2022-12-05T01:53:53;95593.03;;;5.09;100.00
10946;BME280;5525;42.648;23.368;2022-12-05T01:56:20;95573.75;;;4.97;100.00
10946;BME280;5525;42.648;23.368;2022-12-05T01:58:48;95601.31;;;5.03;100.00
10946;BME280;5525;42.648;23.368;2022-12-05T02:01:16;95585.50;;;4.86;100.00
10946;BME280;5525;42.648;23.368;2022-12-05T02:03:48;95556.84;;;4.77;100.00
10946;BME280;5525;42.648;23.368;2022-12-05T02:06:17;95598.09;;;4.96;100.00
10946;BME280;5525;42.648;23.368;2022-12-05T02:08:44;95528.75;;;4.59;100.00
10946;BME280;5525;42.648;23.368;2022-12-05T02:11:12;95602.38;;;5.02;100.00
10946;BME280;5525;42.648;23.368;2022-12-05T02:13:56;95593.81;;;4.85;100.00
10946;BME280;5525;42.648;23.368;2022-12-05T02:16:33;95591.16;;;4.95;100.00
10946;BME280;5525;42.648;23.368;2022-12-05T02:22:31;95563.00;;;4.72;100.00
10946;BME280;5525;42.648;23.368;2022-12-05T02:28:28;95604.53;;;5.10;100.00
10946;BME280;5525;42.648;23.368;2022-12-05T02:31:04;95558.78;;;4.96;100.00
10946;BME280;5525;42.648;23.368;2022-12-05T02:33:36;95594.38;;;5.27;100.00
10946;BME280;5525;42.648;23.368;2022-12-05T02:36:09;95589.81;;;5.38;100.00
10946;BME280;5525;42.648;23.368;2022-12-05T02:38:40;95600.81;;;5.41;100.00
10946;BME280;5525;42.648;23.368;2022-12-05T02:41:16;95567.59;;;5.27;100.00
10946;BME280;5525;42.648;23.368;2022-12-05T02:43:51;95542.94;;;5.35;100.00
10946;BME280;5525;42.648;23.368;2022-12-05T02:46:25;95584.44;;;5.58;100.00
10946;BME280;5525;42.648;23.368;2022-12-05T02:48:55;95566.00;;;5.36;100.00
10946;BME280;5525;42.648;23.368;2022-12-05T02:51:26;95587.13;;;5.63;100.00
10946;BME280;5525;42.648;23.368;2022-12-05T02:53:56;95587.09;;;5.68;100.00
10946;BME280;5525;42.648;23.368;2022-12-05T02:56:25;95545.91;;;5.34;100.00
10946;BME280;5525;42.648;23.368;2022-12-05T02:58:54;95521.84;;;5.13;100.00
10946;BME280;5525;42.648;23.368;2022-12-05T03:01:24;95553.38;;;5.37;100.00
10946;BME280;5525;42.648;23.368;2022-12-05T03:03:53;95583.38;;;5.39;100.00
10946;BME280;5525;42.648;23.368;2022-12-05T03:06:25;95563.31;;;5.21;100.00
10946;BME280;5525;42.648;23.368;2022-12-05T03:08:56;95557.16;;;5.15;100.00
10946;BME280;5525;42.648;23.368;2022-12-05T03:11:25;95572.41;;;5.45;100.00
10946;BME280;5525;42.648;23.368;2022-12-05T03:13:57;95571.88;;;5.48;100.00
10946;BME280;5525;42.648;23.368;2022-12-05T03:16:32;95565.19;;;5.41;100.00
10946;BME280;5525;42.648;23.368;2022-12-05T03:19:03;95568.38;;;5.07;100.00
10946;BME280;5525;42.648;23.368;2022-12-05T03:21:35;95571.06;;;5.38;100.00
10946;BME280;5525;42.648;23.368;2022-12-05T03:24:05;95543.47;;;5.32;100.00
10946;BME280;5525;42.648;23.368;2022-12-05T03:26:45;95565.44;;;5.39;100.00
10946;BME280;5525;42.648;23.368;2022-12-05T03:29:21;95578.84;;;5.44;100.00
10946;BME280;5525;42.648;23.368;2022-12-05T03:31:58;95589.56;;;5.19;100.00
10946;BME280;5525;42.648;23.368;2022-12-05T03:34:41;95565.72;;;5.12;100.00
10946;BME280;5525;42.648;23.368;2022-12-05T03:37:13;95583.38;;;5.44;100.00
10946;BME280;5525;42.648;23.368;2022-12-05T03:39:48;95569.72;;;5.35;100.00
10946;BME280;5525;42.648;23.368;2022-12-05T03:42:25;95535.22;;;5.23;100.00
10946;BME280;5525;42.648;23.368;2022-12-05T03:44:58;95584.72;;;5.56;100.00
10946;BME280;5525;42.648;23.368;2022-12-05T03:47:32;95571.88;;;5.33;100.00
10946;BME280;5525;42.648;23.368;2022-12-05T03:50:09;95536.56;;;5.16;100.00
10946;BME280;5525;42.648;23.368;2022-12-05T03:52:42;95588.75;;;5.34;100.00
10946;BME280;5525;42.648;23.368;2022-12-05T03:55:12;95570.81;;;5.14;100.00
10946;BME280;5525;42.648;23.368;2022-12-05T03:57:44;95578.03;;;5.34;100.00
10946;BME280;5525;42.648;23.368;2022-12-05T04:00:15;95595.97;;;5.53;100.00
10946;BME280;5525;42.648;23.368;2022-12-05T04:02:48;95597.03;;;5.67;100.00
10946;BME280;5525;42.648;23.368;2022-12-05T04:05:19;95579.09;;;5.58;100.00
10946;BME280;5525;42.648;23.368;2022-12-05T04:07:53;95543.47;;;5.32;100.00
10946;BME280;5525;42.648;23.368;2022-12-05T04:10:23;95580.69;;;5.54;100.00
10946;BME280;5525;42.648;23.368;2022-12-05T04:12:53;95592.72;;;5.66;100.00
10946;BME280;5525;42.648;23.368;2022-12-05T04:15:24;95580.97;;;5.62;100.00
10946;BME280;5525;42.648;23.368;2022-12-05T04:17:56;95575.34;;;5.69;100.00
10946;BME280;5525;42.648;23.368;2022-12-05T04:20:28;95578.53;;;5.71;100.00
10946;BME280;5525;42.648;23.368;2022-12-05T04:23:15;95581.19;;;5.71;100.00
10946;BME280;5525;42.648;23.368;2022-12-05T04:25:52;95518.06;;;5.35;100.00
10946;BME280;5525;42.648;23.368;2022-12-05T04:28:28;95572.66;;;5.64;100.00
10946;BME280;5525;42.648;23.368;2022-12-05T04:31:02;95534.94;;;5.30;100.00
10946;BME280;5525;42.648;23.368;2022-12-05T04:33:38;95572.09;;;5.57;100.00
10946;BME280;5525;42.648;23.368;2022-12-05T04:36:10;95495.84;;;5.09;100.00
10946;BME280;5525;42.648;23.368;2022-12-05T04:38:42;95574.81;;;5.52;100.00
10946;BME280;5525;42.648;23.368;2022-12-05T04:41:14;95581.50;;;5.54;100.00
10946;BME280;5525;42.648;23.368;2022-12-05T04:43:44;95575.88;;;5.61;100.00
10946;BME280;5525;42.648;23.368;2022-12-05T04:46:14;95546.97;;;5.28;100.00
10946;BME280;5525;42.648;23.368;2022-12-05T04:48:48;95583.63;;;5.52;100.00
10946;BME280;5525;42.648;23.368;2022-12-05T04:51:20;95583.13;;;5.50;100.00
10946;BME280;5525;42.648;23.368;2022-12-05T04:53:52;95601.06;;;5.55;100.00
10946;BME280;5525;42.648;23.368;2022-12-05T04:56:29;95584.44;;;5.63;100.00
10946;BME280;5525;42.648;23.368;2022-12-05T04:58:56;95595.41;;;5.66;100.00
10946;BME280;5525;42.648;23.368;2022-12-05T05:01:27;95578.00;;;5.69;100.00
10946;BME280;5525;42.648;23.368;2022-12-05T05:04:00;95586.03;;;5.69;100.00
10946;BME280;5525;42.648;23.368;2022-12-05T05:06:28;95535.72;;;5.36;100.00
10946;BME280;5525;42.648;23.368;2022-12-05T05:08:56;95588.97;;;5.72;100.00
10946;BME280;5525;42.648;23.368;2022-12-05T05:11:26;95599.41;;;5.74;100.00
10946;BME280;5525;42.648;23.368;2022-12-05T05:13:54;95594.88;;;5.74;100.00
10946;BME280;5525;42.648;23.368;2022-12-05T05:16:24;95595.41;;;5.71;100.00
10946;BME280;5525;42.648;23.368;2022-12-05T05:18:51;95620.84;;;5.74;100.00
10946;BME280;5525;42.648;23.368;2022-12-05T05:21:23;95617.13;;;5.85;100.00
10946;BME280;5525;42.648;23.368;2022-12-05T05:23:50;95560.84;;;5.60;100.00
10946;BME280;5525;42.648;23.368;2022-12-05T05:26:18;95565.16;;;5.66;100.00
10946;BME280;5525;42.648;23.368;2022-12-05T05:28:45;95625.69;;;5.92;100.00
10946;BME280;5525;42.648;23.368;2022-12-05T05:31:13;95619.78;;;5.95;100.00
10946;BME280;5525;42.648;23.368;2022-12-05T05:33:40;95625.44;;;5.93;100.00
10946;BME280;5525;42.648;23.368;2022-12-05T05:36:09;95628.06;;;5.98;100.00
10946;BME280;5525;42.648;23.368;2022-12-05T05:38:41;95606.09;;;5.81;100.00
10946;BME280;5525;42.648;23.368;2022-12-05T05:41:16;95587.88;;;5.78;100.00
10946;BME280;5525;42.648;23.368;2022-12-05T05:43:44;95617.34;;;5.98;100.00
10946;BME280;5525;42.648;23.368;2022-12-05T05:46:12;95589.50;;;5.74;100.00
10946;BME280;5525;42.648;23.368;2022-12-05T05:48:40;95620.84;;;5.99;100.00
10946;BME280;5525;42.648;23.368;2022-12-05T05:51:09;95623.28;;;5.85;100.00
10946;BME280;5525;42.648;23.368;2022-12-05T05:53:38;95598.91;;;5.92;100.00
10946;BME280;5525;42.648;23.368;2022-12-05T05:56:08;95628.56;;;6.15;100.00
10946;BME280;5525;42.648;23.368;2022-12-05T05:58:36;95630.19;;;6.16;100.00
10946;BME280;5525;42.648;23.368;2022-12-05T06:01:04;95559.56;;;5.27;100.00
10946;BME280;5525;42.648;23.368;2022-12-05T06:03:32;95633.69;;;6.12;100.00
10946;BME280;5525;42.648;23.368;2022-12-05T06:06:00;95576.34;;;5.98;100.00
10946;BME280;5525;42.648;23.368;2022-12-05T06:08:29;95609.03;;;6.15;100.00
10946;BME280;5525;42.648;23.368;2022-12-05T06:11:36;95581.97;;;6.01;100.00
10946;BME280;5525;42.648;23.368;2022-12-05T06:16:38;95657.72;;;6.47;100.00
10946;BME280;5525;42.648;23.368;2022-12-05T06:19:05;95613.56;;;6.14;100.00
10946;BME280;5525;42.648;23.368;2022-12-05T06:21:32;95644.31;;;6.37;100.00
10946;BME280;5525;42.648;23.368;2022-12-05T06:23:59;95651.59;;;6.31;100.00
10946;BME280;5525;42.648;23.368;2022-12-05T06:26:26;95643.81;;;6.30;100.00
10946;BME280;5525;42.648;23.368;2022-12-05T06:28:55;95572.06;;;5.77;100.00
10946;BME280;5525;42.648;23.368;2022-12-05T06:31:23;95637.44;;;6.16;100.00
10946;BME280;5525;42.648;23.368;2022-12-05T06:33:57;95654.28;;;6.31;100.00
10946;BME280;5525;42.648;23.368;2022-12-05T06:36:24;95590.31;;;5.95;100.00
10946;BME280;5525;42.648;23.368;2022-12-05T06:38:53;95631.78;;;6.12;100.00
10946;BME280;5525;42.648;23.368;2022-12-05T06:41:20;95603.66;;;6.10;100.00
10946;BME280;5525;42.648;23.368;2022-12-05T06:43:51;95608.75;;;6.06;100.00
10946;BME280;5525;42.648;23.368;2022-12-05T06:46:21;95650.50;;;6.32;100.00
10946;BME280;5525;42.648;23.368;2022-12-05T06:48:51;95653.47;;;6.41;100.00
10946;BME280;5525;42.648;23.368;2022-12-05T06:51:18;95656.34;;;6.54;100.00
10946;BME280;5525;42.648;23.368;2022-12-05T06:53:46;95651.03;;;6.39;100.00
10946;BME280;5525;42.648;23.368;2022-12-05T06:56:15;95640.59;;;6.38;100.00
10946;BME280;5525;42.648;23.368;2022-12-05T06:58:43;95651.06;;;6.29;100.00
10946;BME280;5525;42.648;23.368;2022-12-05T07:01:11;95643.22;;;6.43;100.00
10946;BME280;5525;42.648;23.368;2022-12-05T07:03:57;95645.91;;;6.53;100.00
10946;BME280;5525;42.648;23.368;2022-12-05T07:06:25;95618.31;;;6.37;100.00
10946;BME280;5525;42.648;23.368;2022-12-05T07:08:52;95646.94;;;6.57;100.00
10946;BME280;5525;42.648;23.368;2022-12-05T07:11:21;95630.91;;;6.47;100.00
10946;BME280;5525;42.648;23.368;2022-12-05T07:13:48;95653.28;;;6.81;100.00
10946;BME280;5525;42.648;23.368;2022-12-05T07:16:15;95650.63;;;6.71;100.00
10946;BME280;5525;42.648;23.368;2022-12-05T07:18:43;95643.91;;;6.73;100.00
10946;BME280;5525;42.648;23.368;2022-12-05T07:21:13;95621.13;;;6.71;100.00
10946;BME280;5525;42.648;23.368;2022-12-05T07:23:43;95650.75;;;7.00;100.00
10946;BME280;5525;42.648;23.368;2022-12-05T07:26:12;95662.31;;;7.00;100.00
10946;BME280;5525;42.648;23.368;2022-12-05T07:28:40;95654.97;;;7.16;100.00
10946;BME280;5525;42.648;23.368;2022-12-05T07:31:09;95661.03;;;7.36;100.00
10946;BME280;5525;42.648;23.368;2022-12-05T07:33:37;95627.28;;;7.15;100.00
10946;BME280;5525;42.648;23.368;2022-12-05T07:36:06;95680.56;;;7.47;100.00
10946;BME280;5525;42.648;23.368;2022-12-05T07:38:36;95670.69;;;7.32;100.00
10946;BME280;5525;42.648;23.368;2022-12-05T07:41:04;95670.31;;;7.10;100.00
10946;BME280;5525;42.648;23.368;2022-12-05T07:43:31;95655.63;;;6.93;100.00
10946;BME280;5525;42.648;23.368;2022-12-05T07:46:01;95642.56;;;6.76;100.00
10946;BME280;5525;42.648;23.368;2022-12-05T07:48:28;95673.09;;;6.90;100.00
10946;BME280;5525;42.648;23.368;2022-12-05T07:50:58;95683.03;;;6.89;100.00
10946;BME280;5525;42.648;23.368;2022-12-05T07:53:26;95678.97;;;6.92;100.00
10946;BME280;5525;42.648;23.368;2022-12-05T07:55:54;95683.56;;;6.92;100.00
10946;BME280;5525;42.648;23.368;2022-12-05T07:58:21;95669.06;;;6.93;100.00
10946;BME280;5525;42.648;23.368;2022-12-05T08:00:49;95649.59;;;6.62;100.00
10946;BME280;5525;42.648;23.368;2022-12-05T08:03:16;95667.00;;;6.74;100.00
10946;BME280;5525;42.648;23.368;2022-12-05T08:05:43;95670.97;;;6.87;100.00
10946;BME280;5525;42.648;23.368;2022-12-05T08:08:10;95665.91;;;6.80;100.00
10946;BME280;5525;42.648;23.368;2022-12-05T08:10:37;95649.22;;;6.88;100.00
10946;BME280;5525;42.648;23.368;2022-12-05T08:13:06;95660.63;;;7.09;100.00
10946;BME280;5525;42.648;23.368;2022-12-05T08:15:34;95628.75;;;6.98;100.00
10946;BME280;5525;42.648;23.368;2022-12-05T08:18:01;95668.25;;;7.41;100.00
10946;BME280;5525;42.648;23.368;2022-12-05T08:20:28;95665.91;;;7.63;100.00
10946;BME280;5525;42.648;23.368;2022-12-05T08:22:55;95643.91;;;7.61;100.00
10946;BME280;5525;42.648;23.368;2022-12-05T08:25:22;95659.09;;;7.75;100.00
10946;BME280;5525;42.648;23.368;2022-12-05T08:27:49;95664.41;;;7.85;100.00
10946;BME280;5525;42.648;23.368;2022-12-05T08:30:17;95669.38;;;7.97;100.00
10946;BME280;5525;42.648;23.368;2022-12-05T08:32:44;95674.47;;;7.98;100.00
10946;BME280;5525;42.648;23.368;2022-12-05T08:35:11;95675.00;;;8.00;100.00
10946;BME280;5525;42.648;23.368;2022-12-05T08:37:37;95678.41;;;7.82;100.00
10946;BME280;5525;42.648;23.368;2022-12-05T08:40:05;95664.72;;;7.79;100.00
10946;BME280;5525;42.648;23.368;2022-12-05T08:42:32;95665.44;;;7.56;100.00
10946;BME280;5525;42.648;23.368;2022-12-05T08:44:59;95667.38;;;7.50;100.00
10946;BME280;5525;42.648;23.368;2022-12-05T08:47:28;95667.66;;;7.49;100.00
10946;BME280;5525;42.648;23.368;2022-12-05T08:49:54;95658.09;;;7.33;100.00
10946;BME280;5525;42.648;23.368;2022-12-05T08:52:21;95633.16;;;7.22;100.00
10946;BME280;5525;42.648;23.368;2022-12-05T08:54:48;95668.97;;;7.51;100.00
10946;BME280;5525;42.648;23.368;2022-12-05T08:57:16;95631.19;;;7.38;100.00
10946;BME280;5525;42.648;23.368;2022-12-05T08:59:43;95666.09;;;7.76;100.00
10946;BME280;5525;42.648;23.368;2022-12-05T09:02:10;95630.97;;;7.63;100.00
10946;BME280;5525;42.648;23.368;2022-12-05T09:04:39;95664.13;;;7.87;100.00
10946;BME280;5525;42.648;23.368;2022-12-05T09:07:05;95671.22;;;8.01;100.00
10946;BME280;5525;42.648;23.368;2022-12-05T09:09:33;95628.38;;;7.81;100.00
10946;BME280;5525;42.648;23.368;2022-12-05T09:12:00;95614.47;;;7.74;100.00
10946;BME280;5525;42.648;23.368;2022-12-05T09:14:27;95668.34;;;8.26;100.00
10946;BME280;5525;42.648;23.368;2022-12-05T09:16:57;95622.88;;;7.96;100.00
10946;BME280;5525;42.648;23.368;2022-12-05T09:19:25;95661.81;;;8.32;100.00
10946;BME280;5525;42.648;23.368;2022-12-05T09:21:54;95657.63;;;8.16;100.00
10946;BME280;5525;42.648;23.368;2022-12-05T09:24:22;95650.72;;;8.39;100.00
10946;BME280;5525;42.648;23.368;2022-12-05T09:26:50;95653.84;;;8.46;100.00
10946;BME280;5525;42.648;23.368;2022-12-05T09:29:17;95650.03;;;8.28;100.00
10946;BME280;5525;42.648;23.368;2022-12-05T09:31:46;95639.16;;;8.10;100.00
10946;BME280;5525;42.648;23.368;2022-12-05T09:34:16;95644.75;;;8.13;100.00
10946;BME280;5525;42.648;23.368;2022-12-05T09:36:44;95636.50;;;8.05;100.00
10946;BME280;5525;42.648;23.368;2022-12-05T09:39:17;95633.50;;;8.11;100.00
10946;BME280;5525;42.648;23.368;2022-12-05T09:42:03;95636.63;;;8.18;100.00
10946;BME280;5525;42.648;23.368;2022-12-05T09:44:43;95642.34;;;8.12;100.00
10946;BME280;5525;42.648;23.368;2022-12-05T09:47:19;95627.81;;;7.84;100.00
10946;BME280;5525;42.648;23.368;2022-12-05T09:49:56;95635.56;;;7.62;100.00
10946;BME280;5525;42.648;23.368;2022-12-05T09:52:26;95596.47;;;7.75;100.00
10946;BME280;5525;42.648;23.368;2022-12-05T09:54:56;95633.00;;;8.04;100.00
10946;BME280;5525;42.648;23.368;2022-12-05T09:57:32;95632.69;;;8.11;100.00
10946;BME280;5525;42.648;23.368;2022-12-05T10:00:03;95622.53;;;8.03;100.00
10946;BME280;5525;42.648;23.368;2022-12-05T10:02:39;95630.47;;;8.18;100.00
10946;BME280;5525;42.648;23.368;2022-12-05T10:05:14;95589.75;;;8.01;100.00
10946;BME280;5525;42.648;23.368;2022-12-05T10:07:50;95623.09;;;8.52;100.00
10946;BME280;5525;42.648;23.368;2022-12-05T10:10:33;95615.94;;;8.66;100.00
10946;BME280;5525;42.648;23.368;2022-12-05T10:13:17;95580.00;;;8.33;100.00
10946;BME280;5525;42.648;23.368;2022-12-05T10:15:50;95620.69;;;8.74;100.00
10946;BME280;5525;42.648;23.368;2022-12-05T10:18:27;95598.16;;;8.46;100.00
10946;BME280;5525;42.648;23.368;2022-12-05T10:20:59;95618.81;;;8.27;100.00
10946;BME280;5525;42.648;23.368;2022-12-05T10:23:31;95594.44;;;8.14;100.00
10946;BME280;5525;42.648;23.368;2022-12-05T10:26:04;95593.75;;;8.03;100.00
10946;BME280;5525;42.648;23.368;2022-12-05T10:28:36;95597.31;;;7.99;100.00
10946;BME280;5525;42.648;23.368;2022-12-05T10:31:08;95583.94;;;7.89;100.00
10946;BME280;5525;42.648;23.368;2022-12-05T10:33:38;95571.66;;;7.83;100.00
10946;BME280;5525;42.648;23.368;2022-12-05T10:36:11;95567.72;;;7.99;100.00
10946;BME280;5525;42.648;23.368;2022-12-05T10:38:38;95609.66;;;8.28;100.00
10946;BME280;5525;42.648;23.368;2022-12-05T10:41:09;95590.59;;;8.25;100.00
10946;BME280;5525;42.648;23.368;2022-12-05T10:43:40;95597.63;;;8.44;100.00
10946;BME280;5525;42.648;23.368;2022-12-05T10:46:09;95601.56;;;8.52;100.00
10946;BME280;5525;42.648;23.368;2022-12-05T10:48:37;95600.69;;;8.56;100.00
10946;BME280;5525;42.648;23.368;2022-12-05T10:51:05;95579.69;;;8.58;100.00
10946;BME280;5525;42.648;23.368;2022-12-05T10:53:39;95592.19;;;8.49;100.00
10946;BME280;5525;42.648;23.368;2022-12-05T10:56:38;95566.69;;;8.18;100.00
10946;BME280;5525;42.648;23.368;2022-12-05T10:59:07;95581.94;;;8.28;100.00
10946;BME280;5525;42.648;23.368;2022-12-05T11:01:36;95593.16;;;8.35;100.00
10946;BME280;5525;42.648;23.368;2022-12-05T11:04:09;95594.13;;;8.20;100.00
10946;BME280;5525;42.648;23.368;2022-12-05T11:06:37;95551.53;;;8.04;100.00
10946;BME280;5525;42.648;23.368;2022-12-05T11:09:13;95588.88;;;8.34;100.00
10946;BME280;5525;42.648;23.368;2022-12-05T11:11:56;95588.19;;;8.47;100.00
10946;BME280;5525;42.648;23.368;2022-12-05T11:14:26;95593.28;;;8.48;100.00
10946;BME280;5525;42.648;23.368;2022-12-05T11:16:55;95583.19;;;8.35;100.00
10946;BME280;5525;42.648;23.368;2022-12-05T11:19:26;95587.94;;;8.43;100.00
10946;BME280;5525;42.648;23.368;2022-12-05T11:21:54;95570.59;;;8.31;100.00
10946;BME280;5525;42.648;23.368;2022-12-05T11:24:25;95556.56;;;8.10;100.00
10946;BME280;5525;42.648;23.368;2022-12-05T11:26:54;95536.94;;;7.86;100.00
10946;BME280;5525;42.648;23.368;2022-12-05T11:29:33;95550.31;;;7.91;100.00
10946;BME280;5525;42.648;23.368;2022-12-05T11:32:02;95556.91;;;8.04;100.00
10946;BME280;5525;42.648;23.368;2022-12-05T11:34:37;95525.03;;;7.92;100.00
10946;BME280;5525;42.648;23.368;2022-12-05T11:37:11;95558.03;;;8.21;100.00
10946;BME280;5525;42.648;23.368;2022-12-05T11:39:39;95541.91;;;8.21;100.00
10946;BME280;5525;42.648;23.368;2022-12-05T11:42:32;95546.06;;;8.09;100.00
10946;BME280;5525;42.648;23.368;2022-12-05T11:45:19;95506.34;;;7.82;100.00
10946;BME280;5525;42.648;23.368;2022-12-05T11:48:16;95538.38;;;8.02;100.00
10946;BME280;5525;42.648;23.368;2022-12-05T11:50:59;95532.66;;;7.85;100.00
10946;BME280;5525;42.648;23.368;2022-12-05T11:53:42;95539.53;;;7.96;100.00
10946;BME280;5525;42.648;23.368;2022-12-05T11:56:25;95484.53;;;7.60;100.00
10946;BME280;5525;42.648;23.368;2022-12-05T11:59:08;95531.47;;;7.96;100.00
10946;BME280;5525;42.648;23.368;2022-12-05T12:01:47;95530.31;;;8.02;100.00
10946;BME280;5525;42.648;23.368;2022-12-05T12:07:24;95523.38;;;7.96;100.00
10946;BME280;5525;42.648;23.368;2022-12-05T12:10:00;95524.63;;;8.04;100.00
10946;BME280;5525;42.648;23.368;2022-12-05T12:12:33;95527.81;;;8.06;100.00
10946;BME280;5525;42.648;23.368;2022-12-05T12:15:15;95505.19;;;7.88;100.00
10946;BME280;5525;42.648;23.368;2022-12-05T12:17:52;95523.25;;;8.06;100.00
10946;BME280;5525;42.648;23.368;2022-12-05T12:20:33;95510.63;;;8.07;100.00
10946;BME280;5525;42.648;23.368;2022-12-05T12:23:15;95499.13;;;7.78;100.00
10946;BME280;5525;42.648;23.368;2022-12-05T12:25:54;95510.25;;;7.66;100.00
10946;BME280;5525;42.648;23.368;2022-12-05T12:28:32;95501.09;;;7.44;100.00
10946;BME280;5525;42.648;23.368;2022-12-05T12:31:34;95487.13;;;7.42;100.00
10946;BME280;5525;42.648;23.368;2022-12-05T12:34:17;95501.25;;;7.52;100.00
10946;BME280;5525;42.648;23.368;2022-12-05T12:36:51;95497.84;;;7.47;100.00
10946;BME280;5525;42.648;23.368;2022-12-05T12:39:31;95500.81;;;7.45;100.00
10946;BME280;5525;42.648;23.368;2022-12-05T12:42:19;95503.75;;;7.49;100.00
10946;BME280;5525;42.648;23.368;2022-12-05T12:47:52;95504.13;;;7.32;100.00
10946;BME280;5525;42.648;23.368;2022-12-05T12:50:29;95499.19;;;7.44;100.00
10946;BME280;5525;42.648;23.368;2022-12-05T12:56:04;95498.16;;;7.40;100.00
10946;BME280;5525;42.648;23.368;2022-12-05T12:58:46;95454.97;;;7.08;100.00
10946;BME280;5525;42.648;23.368;2022-12-05T13:01:24;95498.84;;;7.27;100.00
10946;BME280;5525;42.648;23.368;2022-12-05T13:04:06;95496.22;;;7.17;100.00
10946;BME280;5525;42.648;23.368;2022-12-05T13:06:41;95487.59;;;7.20;100.00
10946;BME280;5525;42.648;23.368;2022-12-05T13:09:14;95487.19;;;7.08;100.00
10946;BME280;5525;42.648;23.368;2022-12-05T13:11:45;95419.13;;;6.60;100.00
10946;BME280;5525;42.648;23.368;2022-12-05T13:14:16;95480.13;;;6.83;100.00
10946;BME280;5525;42.648;23.368;2022-12-05T13:16:47;95480.38;;;6.87;100.00
10946;BME280;5525;42.648;23.368;2022-12-05T13:19:24;95459.53;;;6.74;100.00
10946;BME280;5525;42.648;23.368;2022-12-05T13:21:54;95493.97;;;7.01;100.00
10946;BME280;5525;42.648;23.368;2022-12-05T13:24:24;95492.97;;;6.92;100.00
10946;BME280;5525;42.648;23.368;2022-12-05T13:26:52;95506.00;;;7.03;100.00
10946;BME280;5525;42.648;23.368;2022-12-05T13:29:21;95487.19;;;7.08;100.00
10946;BME280;5525;42.648;23.368;2022-12-05T13:31:52;95476.69;;;7.12;100.00
10946;BME280;5525;42.648;23.368;2022-12-05T13:34:42;95488.16;;;7.17;100.00
10946;BME280;5525;42.648;23.368;2022-12-05T13:37:24;95492.22;;;7.15;100.00
10946;BME280;5525;42.648;23.368;2022-12-05T13:40:25;95476.59;;;6.88;100.00